Terminal Aerodrome Forecast
Issued by NWS Sioux Falls, SD

Home | Current Version | Previous Version | Graphics & Text | Print | Product List | Glossary On
Versions: 1 2 3 4 5 6 7 8 9 10 11 12 13 14 15 16
000
FTUS43 KFSD 290858 AAB
TAFHON
TAF AMD
KHON 290858Z 2909/3006 VRB06KT P6SM BKN015
      TEMPO 2909/2911 SCT015 BKN090
     FM291600 07009KT P6SM OVC035
     FM300100 05005KT P6SM BKN120=

USA.gov is the U.S. government's official web portal to all federal, state and local government web resources and services.